Date,TemperatureHighF,TemperatureAvgF,TemperatureLowF,DewpointHighF,DewpointAvgF,DewpointLowF,HumidityHigh,HumidityAvg,HumidityLow,PressureMaxIn,PressureMinIn,WindSpeedMaxMPH,WindSpeedAvgMPH,GustSpeedMaxMPH,PrecipitationSumIn
2013-3-30,71,70,68,36,33,31,29,26,24,29.94,29.88,0,0,0,0.01
2013-3-31,68,49,34,35,26,14,95,49,21,29.94,29.58,7,2,18,0.18
2013-4-1,44,33,26,42,25,4,99,77,31,29.60,29.41,12,4,33,0.28
2013-4-2,31,24,20,17,6,-1,79,46,28,29.68,29.57,17,9,36,0.00
2013-4-3,38,27,21,10,4,-2,57,39,20,29.95,29.67,13,9,32,0.00
2013-4-4,48,34,20,21,12,2,68,42,22,30.06,29.78,9,4,18,0.00
2013-4-5,51,37,28,28,18,9,85,48,24,29.78,29.57,8,3,21,0.00
2013-4-6,42,28,19,15,6,-6,67,40,20,30.11,29.75,10,4,23,0.00
2013-4-7,56,40,26,36,19,1,75,44,22,30.08,29.73,7,2,20,0.00
2013-4-8,60,46,38,37,32,25,76,59,27,29.94,29.76,10,3,20,0.00
2013-4-9,60,48,39,46,39,31,96,73,47,29.88,29.69,12,3,26,0.09
2013-4-10,50,44,40,46,42,37,98,93,79,29.85,29.72,4,1,8,0.77
2013-4-11,40,33,29,40,28,22,98,82,63,29.96,29.72,6,2,14,0.04
2013-4-12,31,29,27,28,25,20,91,84,63,29.96,29.64,6,3,22,0.01
2013-4-13,48,37,30,36,31,27,92,82,56,29.76,29.61,8,2,16,0.26
2013-4-14,42,36,26,34,27,21,92,73,48,30.03,29.73,9,3,17,0.01
2013-4-15,63,43,22,33,27,19,90,58,28,30.14,30.03,5,1,11,0.00
2013-4-16,60,49,37,52,40,29,91,72,54,30.13,29.83,11,4,29,0.11
2013-4-17,57,46,33,48,31,22,87,58,26,30.18,29.89,10,3,25,0.01
2013-4-18,63,45,30,39,29,23,78,55,32,30.19,29.88,6,2,24,0.00
2013-4-19,71,59,49,57,51,39,89,75,51,29.88,29.40,14,3,31,0.04
2013-4-20,48,40,31,42,24,13,97,56,36,30.06,29.54,14,8,30,0.20
2013-4-21,46,34,24,19,11,5,64,42,20,30.46,30.06,9,4,20,0.00
2013-4-22,58,39,25,25,16,9,72,42,20,30.51,30.35,5,2,17,0.00
2013-4-23,43,35,28,34,29,23,90,77,68,30.35,29.97,4,2,17,0.00
2013-4-24,77,55,35,48,38,30,97,60,21,29.97,29.57,8,2,19,0.00
2013-4-25,60,45,28,48,28,16,79,56,22,30.12,29.58,15,5,31,0.01
2013-4-26,56,43,27,34,26,18,77,54,31,30.26,30.10,5,1,14,0.00
2013-4-27,63,45,26,37,25,18,95,54,18,30.26,30.14,6,1,14,0.00
2013-4-28,77,53,28,37,29,23,86,48,17,30.15,30.00,7,1,14,0.00
2013-4-29,66,54,44,40,36,33,67,52,34,30.08,30.01,5,1,14,0.00
2013-4-30,77,58,47,44,36,24,66,46,24,30.17,30.07,4,1,13,0.00
2013-5-1,80,60,35,34,27,20,77,36,12,30.29,30.17,4,1,17,0.00
2013-5-2,80,59,37,44,36,27,86,48,19,30.30,30.18,5,2,17,0.00
2013-5-3,74,55,38,40,34,25,78,49,23,30.34,30.20,4,2,14,0.00
2013-5-4,79,58,36,44,34,23,99,52,14,30.22,30.07,4,1,14,0.00
2013-5-5,79,58,34,34,28,21,73,39,14,30.12,30.03,4,1,17,0.00
2013-5-6,82,60,32,40,28,18,87,40,11,30.08,29.96,3,1,12,0.00
2013-5-7,86,63,39,51,37,26,90,46,13,30.03,29.93,4,1,11,0.00
2013-5-8,76,60,45,59,52,42,99,78,47,30.05,29.91,4,1,12,0.47
2013-5-9,74,59,48,60,53,48,99,84,43,29.91,29.76,3,0,8,0.13
2013-5-10,76,61,46,57,51,45,99,73,46,29.85,29.73,4,1,11,0.00
2013-5-11,68,61,53,61,55,50,97,83,64,29.73,29.54,4,1,12,0.31
2013-5-12,60,50,39,52,39,19,99,70,27,29.66,29.50,8,2,24,0.01
2013-5-13,47,39,34,32,27,24,76,63,49,29.88,29.64,8,4,25,0.00
2013-5-14,56,40,26,33,28,22,93,64,32,29.91,29.83,5,1,14,0.00
2013-5-15,65,44,25,51,34,23,99,76,23,29.88,29.49,3,1,12,0.09
2013-5-16,75,59,44,50,38,26,99,51,18,29.73,29.50,11,4,37,0.00
2013-5-17,68,51,36,41,38,32,90,65,28,30.08,29.73,7,2,21,0.00
2013-5-18,76,55,32,48,35,27,99,57,19,30.15,30.08,4,1,11,0.00
2013-5-19,72,52,38,52,47,38,99,83,42,30.14,30.00,2,0,13,0.26
2013-5-20,73,60,52,62,56,51,99,89,66,30.02,29.86,3,1,9,0.00
2013-5-21,86,66,53,66,60,52,99,82,45,29.88,29.73,4,1,13,0.87
2013-5-22,79,63,52,67,60,51,99,90,63,29.81,29.71,2,0,8,0.53
2013-5-23,76,67,58,66,60,58,99,82,58,29.73,29.64,5,1,12,0.01
2013-5-24,62,48,40,60,48,40,99,98,92,29.81,29.55,5,2,15,0.96
2013-5-25,41,39,33,41,38,33,99,98,96,29.79,29.69,4,2,16,0.98
2013-5-26,51,40,33,42,38,33,99,93,66,29.88,29.65,6,3,25,0.15
2013-5-27,70,57,38,49,40,34,99,58,28,30.05,29.96,5,2,13,0.00
2013-5-28,77,54,32,50,41,32,99,67,26,30.08,29.99,2,0,11,0.00
2013-5-29,65,58,52,62,55,45,99,93,69,30.00,29.85,2,0,6,0.17
2013-5-30,86,72,62,65,62,60,97,73,47,29.99,29.89,4,2,14,0.00
2013-5-31,91,74,56,68,61,56,99,69,34,30.01,29.86,5,1,14,0.00
2013-6-1,89,78,63,66,62,59,92,62,41,29.88,29.76,5,1,14,0.00
2013-6-2,90,71,62,68,64,61,98,79,45,29.76,29.61,9,1,26,0.63
2013-6-3,71,63,49,62,52,38,99,70,52,29.76,29.69,6,2,15,0.01
2013-6-4,69,54,42,48,42,35,96,66,45,29.98,29.75,4,2,14,0.00
2013-6-5,74,55,37,49,40,22,99,64,15,30.06,29.98,4,1,11,0.00
2013-6-6,72,58,46,52,46,39,99,66,44,30.03,29.94,3,1,11,0.12
2013-6-7,52,50,48,51,49,47,99,98,95,29.94,29.73,3,1,11,0.76
2013-6-8,66,55,49,62,54,48,99,95,82,29.91,29.61,4,1,11,0.47
2013-6-9,78,61,50,58,54,50,99,80,43,30.07,29.89,3,1,11,0.00
2013-6-10,70,57,45,59,53,44,99,88,56,30.08,29.83,2,0,10,0.20
2013-6-11,58,54,52,56,53,52,99,97,90,29.83,29.46,3,1,11,1.19
2013-6-12,68,55,47,57,52,46,99,91,61,29.74,29.47,4,2,15,0.28
2013-6-13,62,52,42,58,50,42,99,93,75,29.72,29.59,1,0,8,0.18
2013-6-14,76,60,48,57,52,48,99,78,44,29.74,29.57,3,1,13,0.00
2013-6-15,77,59,42,50,46,41,99,66,32,29.84,29.73,4,1,14,0.00
2013-6-16,75,58,44,60,52,44,99,83,47,29.84,29.60,3,1,14,0.06
2013-6-17,79,62,50,63,56,49,99,82,50,29.81,29.68,5,1,17,0.08
2013-6-18,62,56,48,56,53,48,98,92,78,29.87,29.78,2,0,8,0.13
2013-6-19,71,54,39,52,44,39,99,73,33,30.06,29.83,4,1,12,0.00
2013-6-20,79,59,36,53,44,36,99,65,23,30.11,30.05,3,1,12,0.00
2013-6-21,85,64,47,58,51,47,99,69,32,30.14,30.08,3,0,11,0.00
2013-6-22,84,68,50,65,59,50,99,75,49,30.11,29.99,3,1,11,0.02
2013-6-23,90,72,62,72,66,26,99,83,46,30.02,29.87,5,1,20,0.21
2013-6-24,88,72,62,72,66,62,99,83,57,29.93,29.84,4,1,17,0.05
2013-6-25,87,71,61,69,65,60,99,82,49,29.89,29.69,5,1,16,0.32
2013-6-26,77,67,61,70,65,60,99,94,74,29.74,29.67,1,0,5,0.44
2013-6-27,86,70,58,73,66,58,99,86,60,29.74,29.62,2,0,9,0.01
2013-6-28,79,67,58,68,62,57,99,87,64,29.62,29.39,3,1,14,0.85
2013-6-29,84,70,60,68,62,58,99,79,46,29.61,29.41,4,1,15,0.11
2013-6-30,86,71,60,68,63,60,99,78,49,29.83,29.61,2,0,8,0.00
2013-7-1,83,69,62,70,66,61,99,89,61,29.97,29.83,1,0,7,1.06
2013-7-2,86,71,62,73,67,62,99,89,58,30.05,29.93,2,0,6,0.37
2013-7-3,88,74,65,71,67,65,99,82,52,30.09,30.02,3,1,12,0.05
2013-7-4,92,77,66,71,69,65,99,78,49,30.11,30.00,3,1,14,0.07
2013-7-5,90,76,68,72,69,66,99,81,47,30.07,29.97,4,1,14,0.24
2013-7-6,85,74,65,70,67,62,99,80,52,30.01,29.93,4,1,11,0.08
2013-7-7,91,72,61,76,66,60,98,82,53,29.96,29.84,2,0,8,0.90
2013-7-8,84,71,66,73,67,65,99,89,59,29.96,29.85,3,0,9,0.04
2013-7-9,89,72,65,72,68,64,99,86,54,29.99,29.93,2,0,6,1.83
2013-7-10,81,72,66,73,68,66,99,90,71,29.93,29.69,2,0,9,0.14
2013-7-11,83,71,58,69,64,57,97,80,51,29.91,29.67,3,1,11,0.00
2013-7-12,88,68,55,65,59,54,99,77,41,30.10,29.91,2,0,6,0.00
2013-7-13,83,70,57,68,62,57,99,78,55,30.20,30.10,2,0,8,0.00
2013-7-14,87,73,62,71,66,62,99,81,51,30.22,30.14,2,0,7,0.00
2013-7-15,93,75,62,72,65,61,99,76,43,30.15,30.06,3,1,11,0.00
2013-7-16,90,74,60,68,64,59,99,74,42,30.14,30.08,4,1,14,0.00
2013-7-17,93,77,61,71,66,60,98,72,46,30.12,29.92,3,1,12,0.00
2013-7-18,93,78,67,73,69,65,98,77,48,29.97,29.86,4,1,14,0.52
2013-7-19,91,79,67,73,69,66,99,74,48,29.87,29.65,6,2,21,0.26
2013-8-1,62,61,61,61,61,61,98,97,97,29.74,29.74,0,0,0,0.30
2013-8-2,79,67,57,62,58,54,99,76,44,29.76,29.69,4,1,14,0.02
2013-8-3,78,63,53,59,55,51,99,78,45,29.76,29.69,4,1,16,0.15
2013-8-4,73,59,49,61,54,48,99,85,52,29.82,29.72,3,1,16,0.43
2013-8-5,73,57,45,54,47,41,99,75,34,29.94,29.82,4,1,18,0.01
2013-8-6,82,60,42,59,50,42,99,73,34,30.01,29.94,2,0,6,0.00
2013-8-7,82,66,53,61,56,51,95,73,43,30.03,29.94,2,1,11,0.00
2013-8-8,90,71,64,68,63,58,91,77,47,29.95,29.88,2,0,11,0.00
2013-8-9,78,70,67,72,68,65,98,90,78,29.89,29.68,2,0,7,0.25
2013-8-10,78,66,49,68,55,44,97,71,34,29.93,29.73,4,1,13,0.01
2013-8-11,78,60,44,57,50,43,99,75,43,29.98,29.90,2,0,10,0.00
2013-8-12,80,63,49,60,54,48,99,76,43,29.93,29.82,3,0,11,0.00
2013-8-13,72,61,55,66,59,53,98,93,78,29.82,29.60,0,0,3,0.56
2013-8-14,71,56,48,60,52,47,99,85,56,29.86,29.60,4,1,14,0.11
2013-8-15,72,55,40,55,48,40,99,79,47,29.99,29.86,4,1,13,0.00
2013-8-16,80,59,44,58,51,43,99,77,42,30.08,29.97,3,0,11,0.00
2013-8-17,83,62,45,60,52,44,99,76,41,30.17,30.08,2,0,8,0.00
2013-8-18,78,62,50,62,55,50,99,80,48,30.16,29.99,2,0,6,0.00
2013-8-19,82,68,51,61,57,51,99,72,47,29.99,29.88,4,1,6,0.00
2013-8-20,79,79,79,61,61,61,55,55,55,29.89,29.89,1,1,2,0.00
2013-8-21,79,79,79,61,61,61,55,55,55,29.89,29.89,1,1,2,0.00
2013-8-22,79,79,79,61,61,61,55,55,55,29.89,29.89,1,1,2,0.00
2013-8-23,79,71,48,61,56,46,95,61,45,30.06,29.89,4,1,12,0.41
2013-8-24,81,58,40,56,48,40,99,76,35,30.22,30.06,2,0,8,0.00
2013-8-25,79,61,43,58,51,42,99,73,41,30.24,30.05,6,1,13,0.14
2013-8-26,75,66,60,65,60,55,94,82,69,30.06,29.81,5,2,12,0.09
2013-8-27,73,70,66,67,66,64,97,88,81,29.83,29.77,3,1,7,0.22
2013-8-28,73,72,63,67,66,61,96,83,77,29.88,29.77,2,2,10,0.22
2013-8-29,80,66,57,66,61,57,98,86,60,29.97,29.86,3,0,11,0.01
2013-8-30,83,70,60,66,62,59,97,79,52,29.91,29.72,5,1,12,0.00
2013-8-31,79,70,64,72,66,62,97,89,74,29.73,29.67,3,0,8,0.11
2013-9-1,85,72,66,69,66,65,96,83,56,29.78,29.71,3,1,7,0.00
2013-9-2,84,70,61,70,66,60,97,86,54,29.76,29.61,6,0,15,0.54
2013-9-3,72,63,58,63,58,53,97,83,59,29.73,29.62,6,2,17,0.00
2013-9-4,75,64,56,57,54,49,93,70,48,29.81,29.73,8,3,19,0.00
2013-9-5,66,56,38,56,47,38,98,76,39,30.03,29.76,6,2,16,0.15
2013-9-6,68,49,32,47,38,31,99,72,34,30.10,29.95,5,1,15,0.00
2013-9-7,74,57,45,51,46,42,92,69,35,29.95,29.74,4,1,14,0.01
2013-9-8,64,55,38,55,46,37,93,72,43,29.96,29.67,6,2,20,0.01
2013-9-9,70,50,32,47,40,31,99,74,35,30.06,29.95,4,1,11,0.00
2013-9-10,74,60,47,66,58,46,97,91,75,29.97,29.87,3,0,11,0.25
2013-9-11,90,79,63,71,68,62,96,72,49,29.96,29.85,7,3,19,0.00
2013-9-12,82,66,62,69,63,60,97,90,60,29.85,29.56,7,0,8,0.54
2013-9-13,62,57,50,61,56,49,98,96,95,29.71,29.52,5,2,13,0.34
2013-9-14,57,52,46,50,48,45,99,87,72,29.93,29.71,4,2,13,0.01
2013-9-15,66,52,36,51,46,36,99,81,51,30.00,29.90,5,1,13,0.00
2013-9-16,56,48,34,52,43,31,96,84,56,30.13,29.88,7,2,17,0.07
2013-9-17,63,45,29,45,37,28,99,77,45,30.26,30.13,4,1,15,0.00
2013-9-18,73,47,34,50,40,32,99,80,33,30.18,30.01,5,1,13,0.00
2013-9-19,78,56,40,56,47,40,99,77,34,30.02,29.93,4,1,10,0.00
2013-9-20,84,60,42,59,50,42,99,74,32,29.97,29.85,3,0,11,0.00
2013-9-21,76,61,50,59,54,49,95,79,44,29.86,29.53,7,2,24,0.09
2013-9-22,62,54,44,59,49,40,96,83,63,29.75,29.47,8,3,23,0.41
2013-9-23,57,44,36,42,38,34,97,79,57,29.88,29.74,8,3,21,0.00
2013-9-24,42,42,41,38,37,37,86,85,83,29.87,29.82,5,2,12,0.00
2013-9-26,68,55,39,50,45,38,98,72,46,30.01,29.87,5,2,12,0.00
2013-9-27,63,48,37,50,44,36,99,87,61,30.15,30.00,3,0,7,0.00
2013-9-28,78,54,37,58,46,36,99,79,38,30.20,30.12,4,0,8,0.00
2013-9-29,75,57,40,59,47,39,99,75,42,30.12,29.95,3,0,10,0.00
2013-9-30,77,54,38,54,46,38,99,79,38,29.97,29.85,3,1,11,0.00
2013-10-1,76,56,39,56,49,39,99,81,47,29.87,29.78,6,1,14,0.00
2013-10-2,76,61,49,59,53,47,95,76,56,29.88,29.75,8,2,23,0.00
2013-10-3,74,56,41,50,45,40,97,70,33,29.97,29.87,4,1,11,0.00
2013-10-4,66,54,40,52,48,40,99,82,56,29.95,29.90,2,0,14,0.00
2013-10-5,64,56,53,52,51,48,92,85,64,29.99,29.92,3,0,8,0.00
2013-10-6,55,50,47,52,48,46,96,92,79,30.03,29.94,4,2,17,0.31
2013-10-7,70,57,50,62,53,45,96,87,72,29.94,29.53,12,3,99,0.44
2013-10-8,62,49,33,45,38,31,92,70,40,30.22,29.77,7,2,18,0.00
2013-10-9,69,46,32,42,35,30,97,71,32,30.30,30.19,4,1,11,0.00
2013-10-10,69,49,32,44,35,24,98,65,20,30.19,30.02,2,0,8,0.00
2013-10-11,75,56,41,47,39,30,85,57,22,30.04,29.99,3,0,9,0.00
2013-10-12,64,53,39,52,46,37,93,79,63,30.22,30.03,5,2,16,0.00
2013-10-13,68,53,41,49,44,37,97,76,44,30.26,30.19,4,1,12,0.00
2013-10-14,65,52,42,51,47,42,99,84,61,30.20,30.09,4,1,11,0.00
2013-10-15,60,56,51,52,51,49,94,83,73,30.12,29.99,3,1,11,0.00
2013-10-16,68,55,48,50,48,46,96,78,47,29.99,29.71,4,1,14,0.00
2013-10-17,66,56,48,53,47,42,93,74,48,29.72,29.55,7,2,15,0.14
2013-10-18,58,51,47,51,44,34,96,76,52,29.75,29.46,12,6,27,0.34
2013-10-19,63,51,36,44,39,34,95,66,43,29.78,29.55,7,2,17,0.02
2013-10-20,51,46,36,46,36,30,93,70,50,29.84,29.52,13,7,25,0.05
2013-10-21,62,47,32,42,35,29,96,66,37,29.92,29.77,7,1,17,0.00
2013-10-22,51,46,33,46,37,26,86,72,57,29.76,29.57,9,2,19,0.11
2013-10-23,52,39,29,36,29,24,92,70,36,29.62,29.44,7,2,15,0.07
2013-10-24,43,37,31,32,29,25,88,73,58,29.70,29.50,13,6,28,0.04
2013-10-25,43,37,33,28,25,21,75,63,47,29.92,29.70,9,4,20,0.00
2013-10-26,44,39,31,30,27,22,84,63,42,29.92,29.65,9,3,24,0.00
2013-10-27,46,40,30,32,28,21,81,64,44,29.85,29.60,10,4,24,0.00
2013-10-28,49,37,22,34,26,16,82,65,52,30.15,29.84,15,4,30,0.01
2013-10-29,45,28,15,22,13,6,83,58,21,30.22,30.12,6,1,14,0.00
2013-10-30,47,34,24,34,26,14,87,72,58,30.11,29.99,6,1,12,0.02
2013-10-31,56,43,28,53,40,24,92,88,79,30.03,29.67,4,0,11,0.18
2013-11-1,65,58,48,56,48,36,88,70,41,29.67,29.24,22,8,49,1.10
2013-11-2,57,45,34,42,36,31,93,74,50,29.66,29.48,7,2,15,0.02
2013-11-3,36,29,18,31,18,8,91,64,42,30.23,29.66,9,4,20,0.00
2013-11-4,40,25,14,14,11,6,76,57,30,30.42,30.23,5,1,11,0.00
2013-11-5,51,32,22,29,18,9,72,56,35,30.43,30.24,4,0,50,0.00
2013-11-6,60,46,31,41,34,25,81,65,44,30.24,29.76,8,2,17,0.00
2013-11-7,55,45,30,48,38,21,88,76,56,29.77,29.55,10,4,24,0.39
2013-11-8,41,31,24,29,20,17,77,62,46,29.89,29.65,12,4,27,0.00
2013-11-9,40,32,26,28,18,12,85,57,43,29.98,29.76,7,1,17,0.00
2013-11-10,45,36,30,37,30,24,88,80,62,29.76,29.55,12,4,28,0.14
2013-11-11,43,37,32,31,24,21,74,60,44,29.88,29.67,13,5,29,0.00
2013-11-12,38,25,19,31,15,8,87,66,50,29.98,29.68,8,2,19,0.01
2013-11-13,30,23,16,16,8,-2,65,53,26,30.05,29.85,10,2,20,0.00
2013-11-14,44,34,28,23,16,5,56,46,26,29.89,29.81,9,2,24,0.00
2013-11-15,57,40,31,20,11,1,59,31,19,30.00,29.89,4,0,17,0.00
2013-11-16,58,42,33,28,22,10,67,46,25,30.11,29.98,3,0,14,0.00
2013-11-17,52,43,32,50,38,24,91,82,69,30.09,29.59,2,0,17,0.05
2013-11-18,56,49,38,52,39,25,90,68,50,29.58,29.32,13,4,30,0.54
2013-11-19,38,29,23,25,15,6,79,55,47,30.10,29.50,12,3,30,0.00
2013-11-20,36,23,14,15,10,7,74,59,38,30.37,30.09,4,0,24,0.00
2013-11-21,47,30,14,24,10,3,75,47,20,30.37,30.14,2,0,12,0.00
2013-11-22,43,37,33,40,33,24,92,85,63,30.14,29.64,7,0,17,0.20
2013-11-23,43,30,20,37,17,2,81,59,36,29.76,29.57,12,4,29,0.01
2013-11-24,20,14,9,9,-8,-20,73,36,23,29.96,29.59,9,4,31,0.00
2013-11-25,28,16,4,10,-4,-18,65,41,23,30.10,29.95,4,0,19,0.00
2013-11-26,34,29,24,27,20,2,85,70,31,30.05,29.80,6,0,16,0.04
2013-11-27,42,33,28,40,30,24,94,89,84,29.79,29.18,7,1,18,0.48
2013-11-28,28,18,7,24,5,-7,85,58,34,30.15,29.31,10,2,27,0.00
2013-11-29,25,11,-1,6,-1,-10,72,59,33,30.46,30.14,2,0,14,0.00
2013-11-30,29,14,-4,10,-2,-14,70,50,27,30.48,30.12,1,0,15,0.00
2013-12-1,41,30,23,29,21,9,82,70,53,30.12,29.82,0,0,8,0.04
2013-12-2,38,32,28,32,28,22,88,84,76,29.82,29.69,0,0,1,0.00
2013-12-3,43,32,23,37,26,19,92,81,63,29.76,29.68,0,0,8,0.00
2013-12-4,38,30,23,24,20,17,78,69,51,29.94,29.76,1,0,11,0.00
2013-12-5,50,39,29,48,35,21,92,84,70,29.94,29.70,2,0,18,0.01
2013-12-6,52,37,28,50,31,22,93,80,60,29.94,29.71,6,0,21,0.33
2013-12-7,29,26,21,23,14,4,82,62,45,30.19,29.90,3,0,18,0.00
2013-12-8,26,20,14,9,7,3,69,56,41,30.32,30.19,1,0,10,0.00
2013-12-9,36,27,19,29,19,8,85,72,57,30.19,29.66,9,1,24,0.00
2013-12-10,33,30,25,23,15,-5,70,55,24,29.69,29.56,8,4,22,0.00
2013-12-13,19,8,-4,7,-3,-15,68,60,52,30.11,29.75,2,0,14,0.00
2013-12-14,9,2,-7,-1,-12,-17,65,53,33,30.28,29.84,4,0,17,0.00
2013-12-15,22,17,8,16,10,-1,79,73,65,29.84,29.31,10,2,24,0.00
2013-12-16,19,16,12,11,1,-12,70,52,25,29.75,29.46,13,6,29,0.00
2013-12-17,12,1,-14,4,-10,-27,69,58,51,29.92,29.73,0,0,3,0.00
2013-12-18,27,19,8,15,10,-1,75,67,57,29.76,29.67,8,1,12,0.00
2013-12-19,36,30,24,24,17,12,74,58,43,29.84,29.69,12,3,19,0.00
2013-12-20,49,42,33,40,35,24,88,77,53,29.85,29.68,6,1,23,0.14
2013-12-21,55,48,33,49,43,30,93,83,71,29.73,29.66,8,1,20,0.40
2013-12-22,60,39,28,52,35,24,94,85,61,29.76,29.49,4,0,18,0.06
2013-12-23,48,39,27,44,36,20,94,91,73,29.93,29.75,1,0,9,0.18
2013-12-24,27,19,9,20,10,0,76,67,56,29.99,29.87,6,1,19,0.00
2013-12-25,17,8,0,2,-4,-10,68,57,37,30.22,29.98,4,0,16,0.01
2013-12-26,28,21,14,19,11,-2,77,65,47,30.12,29.84,2,0,13,0.00
2013-12-27,28,24,20,17,14,9,75,65,46,29.99,29.93,8,2,21,0.00
2013-12-28,38,32,23,26,22,14,81,65,53,29.93,29.76,12,3,36,0.05
2013-12-29,39,33,29,29,27,23,88,78,64,29.81,29.41,0,0,1,0.00
2013-12-30,33,22,-1,30,12,-11,88,68,44,29.91,29.41,13,4,31,0.01
2013-12-31,17,8,-2,6,-3,-12,70,61,48,29.90,29.72,16,1,30,0.00
2014-1-1,16,10,2,1,-3,-7,64,56,45,30.08,29.85,7,2,21,0.00
2014-1-2,7,0,-13,-5,-12,-26,63,57,50,30.07,29.62,0,0,10,0.00